createdAt,value
2019-05-15T00:02:02.909Z,57.15
2019-05-15T00:04:43.343Z,56.28
2019-05-15T00:07:25.613Z,56.68
2019-05-15T00:10:04.716Z,60.80
2019-05-15T00:12:42.244Z,59.80
2019-05-15T00:15:19.562Z,55.43
2019-05-15T00:17:58.078Z,47.55
2019-05-15T00:20:39.621Z,49.53
2019-05-15T00:23:18.392Z,53.68
2019-05-15T00:25:58.379Z,49.03
2019-05-15T00:28:36.001Z,54.93
2019-05-15T00:31:13.627Z,48.52
2019-05-15T00:33:50.756Z,58.80
2019-05-15T00:36:30.009Z,63.68
2019-05-15T00:39:08.649Z,61.00
2019-05-15T00:41:54.100Z,60.92
2019-05-15T00:44:28.018Z,63.63
2019-05-15T00:47:05.262Z,59.58
2019-05-15T00:49:42.774Z,67.82
2019-05-15T00:52:20.314Z,67.53
2019-05-15T00:54:58.934Z,69.20
2019-05-15T00:57:39.366Z,67.62
2019-05-15T01:00:18.640Z,65.97
2019-05-15T01:02:57.860Z,60.65
2019-05-15T01:05:34.903Z,63.23
2019-05-15T01:08:12.496Z,69.53
2019-05-15T01:10:50.467Z,63.02
2019-05-15T01:13:29.057Z,63.87
2019-05-15T01:16:08.901Z,60.10
2019-05-15T01:18:46.019Z,47.67
2019-05-15T01:21:23.473Z,55.50
2019-05-15T01:24:01.471Z,37.65
2019-05-15T01:26:38.960Z,38.35
2019-05-15T01:29:18.228Z,46.20
2019-05-15T01:31:55.339Z,50.80
2019-05-15T01:34:34.046Z,44.95
2019-05-15T01:37:11.217Z,44.50
2019-05-15T01:39:48.882Z,46.63
2019-05-15T01:42:27.991Z,47.35
2019-05-15T01:45:08.711Z,49.53
2019-05-15T01:47:45.180Z,52.33
2019-05-15T01:50:22.473Z,54.55
2019-05-15T01:52:59.732Z,48.95
2019-05-15T01:55:39.386Z,45.23
2019-05-15T01:58:18.601Z,57.40
2019-05-15T02:00:58.976Z,43.33
2019-05-15T02:03:38.322Z,46.05
2019-05-15T02:06:19.027Z,43.80
2019-05-15T02:08:58.874Z,42.15
2019-05-15T02:11:38.678Z,47.15
2019-05-15T02:14:18.802Z,40.05
2019-05-15T02:17:00.155Z,47.33
2019-05-15T02:19:39.170Z,54.48
2019-05-15T02:22:18.778Z,48.95
2019-05-15T02:24:55.914Z,51.88
2019-05-15T02:27:34.034Z,49.50
2019-05-15T02:30:22.646Z,50.28
2019-05-15T02:32:50.780Z,53.70
2019-05-15T02:35:29.616Z,59.20
2019-05-15T02:38:10.091Z,46.50
2019-05-15T02:40:49.392Z,53.40
2019-05-15T02:43:29.871Z,51.98
2019-05-15T02:46:10.027Z,49.15
2019-05-15T02:48:48.957Z,56.68
2019-05-15T02:51:25.643Z,56.80
2019-05-15T02:54:03.199Z,53.17
2019-05-15T02:56:40.420Z,50.40
2019-05-15T02:59:19.407Z,43.68
2019-05-15T03:01:59.430Z,31.20
2019-05-15T03:04:39.776Z,31.33
2019-05-15T03:07:18.986Z,33.08
2019-05-15T03:09:54.562Z,37.40
2019-05-15T03:12:32.017Z,46.63
2019-05-15T03:15:10.359Z,45.90
2019-05-15T03:17:49.487Z,53.15
2019-05-15T03:20:29.876Z,50.60
2019-05-15T03:23:09.625Z,44.58
2019-05-15T03:25:48.896Z,40.63
2019-05-15T03:28:25.481Z,42.95
2019-05-15T03:31:22.540Z,41.08
2019-05-15T03:33:46.671Z,39.27
2019-05-15T03:36:24.113Z,40.15
2019-05-15T03:39:01.885Z,42.88
2019-05-15T03:41:40.150Z,64.60
2019-05-15T03:44:19.789Z,41.92
2019-05-15T03:46:59.600Z,36.95
2019-05-15T03:49:39.724Z,33.98
2019-05-15T03:52:19.042Z,34.53
2019-05-15T03:54:58.842Z,34.30
2019-05-15T03:57:39.783Z,45.83
2019-05-15T04:00:19.302Z,54.53
2019-05-15T04:02:59.016Z,55.75
2019-05-15T04:05:38.946Z,68.25
2019-05-15T04:08:19.176Z,69.00
2019-05-15T04:10:55.162Z,50.00
2019-05-15T04:13:34.970Z,51.70
2019-05-15T04:16:12.670Z,54.15
2019-05-15T04:18:50.624Z,57.73
2019-05-15T04:21:30.361Z,62.53
2019-05-15T04:24:09.629Z,60.28
2019-05-15T04:26:48.888Z,51.20
2019-05-15T04:29:28.930Z,75.67
2019-05-15T04:32:06.326Z,66.00
2019-05-15T04:34:44.793Z,58.25
2019-05-15T04:37:22.366Z,59.80
2019-05-15T04:40:00.314Z,64.50
2019-05-15T04:42:39.720Z,52.33
2019-05-15T04:45:19.449Z,52.98
2019-05-15T04:47:58.864Z,52.62
2019-05-15T04:50:40.065Z,55.98
2019-05-15T04:53:19.212Z,49.35
2019-05-15T04:55:59.453Z,49.45
2019-05-15T04:58:39.538Z,61.68
2019-05-15T05:01:20.037Z,63.48
2019-05-15T05:03:58.895Z,54.83
2019-05-15T05:06:38.675Z,58.73
2019-05-15T05:09:15.824Z,49.03
2019-05-15T05:11:53.092Z,52.15
2019-05-15T05:14:30.421Z,59.83
2019-05-15T05:17:09.059Z,53.98
2019-05-15T05:19:47.898Z,47.88
2019-05-15T05:22:28.219Z,48.28
2019-05-15T05:25:08.057Z,57.98
2019-05-15T05:27:49.968Z,64.45
2019-05-15T05:30:29.308Z,60.52
2019-05-15T05:33:08.495Z,53.33
2019-05-15T05:35:48.165Z,52.23
2019-05-15T05:38:25.158Z,45.70
2019-05-15T05:41:02.817Z,47.93
2019-05-15T05:43:40.446Z,52.50
2019-05-15T05:46:18.431Z,45.60
2019-05-15T05:48:58.296Z,46.80
2019-05-15T05:51:35.793Z,46.50
2019-05-15T05:54:13.805Z,54.70
2019-05-15T05:56:51.074Z,45.45
2019-05-15T05:59:28.801Z,40.58
2019-05-15T06:02:08.270Z,38.50
2019-05-15T06:04:47.935Z,34.83
2019-05-15T06:07:27.910Z,33.83
2019-05-15T06:10:04.844Z,42.25
2019-05-15T06:12:42.197Z,42.55
2019-05-15T06:15:19.280Z,32.70
2019-05-15T06:17:58.450Z,38.23
2019-05-15T06:20:36.272Z,33.48
2019-05-15T06:23:13.468Z,35.75
2019-05-15T06:25:51.679Z,31.23
2019-05-15T06:28:29.776Z,32.00
2019-05-15T06:31:08.964Z,28.62
2019-05-15T06:33:46.319Z,28.73
2019-05-15T06:36:23.515Z,28.15
2019-05-15T06:39:00.992Z,29.70
2019-05-15T06:41:40.410Z,31.45
2019-05-15T06:44:18.746Z,31.75
2019-05-15T06:46:58.582Z,27.35
2019-05-15T06:49:34.781Z,30.45
2019-05-15T06:52:12.514Z,36.58
2019-05-15T06:54:50.074Z,27.48
2019-05-15T06:57:28.738Z,33.95
2019-05-15T07:00:08.083Z,29.10
2019-05-15T07:02:48.766Z,33.20
2019-05-15T07:05:29.321Z,35.73
2019-05-15T07:08:05.583Z,32.25
2019-05-15T07:10:43.032Z,37.15
2019-05-15T07:13:21.257Z,37.85
2019-05-15T07:15:58.729Z,35.38
2019-05-15T07:18:38.797Z,36.38
2019-05-15T07:21:18.240Z,25.17
2019-05-15T07:23:58.134Z,28.42
2019-05-15T07:26:39.179Z,32.05
2019-05-15T07:31:53.524Z,32.15
2019-05-15T07:34:31.877Z,42.62
2019-05-15T07:37:09.795Z,54.00
2019-05-15T07:39:48.837Z,54.38
2019-05-15T07:42:28.906Z,43.40
2019-05-15T07:45:08.132Z,45.80
2019-05-15T07:47:44.829Z,55.50
2019-05-15T07:50:22.197Z,55.80
2019-05-15T07:52:59.459Z,48.20
2019-05-15T07:55:39.374Z,48.45
2019-05-15T07:58:20.244Z,49.90
2019-05-15T08:00:58.781Z,49.38
2019-05-15T08:03:35.090Z,60.70
2019-05-15T08:06:13.733Z,54.90
2019-05-15T08:08:51.279Z,49.65
2019-05-15T08:11:28.778Z,45.63
2019-05-15T08:14:06.014Z,58.95
2019-05-15T08:16:45.070Z,53.30
2019-05-15T08:19:22.666Z,61.35
2019-05-15T08:22:00.373Z,73.20
2019-05-15T08:24:39.127Z,47.73
2019-05-15T08:27:19.094Z,51.92
2019-05-15T08:29:58.137Z,48.17
2019-05-15T08:32:38.894Z,42.27
2019-05-15T08:35:18.939Z,42.38
2019-05-15T08:37:57.994Z,41.60
2019-05-15T08:40:35.313Z,47.35
2019-05-15T08:43:13.088Z,53.75
2019-05-15T08:45:50.513Z,38.67
2019-05-15T08:48:28.053Z,46.90
2019-05-15T08:51:08.705Z,46.90
2019-05-15T08:53:48.324Z,48.90
2019-05-15T08:56:25.312Z,62.85
2019-05-15T08:59:02.651Z,46.37
2019-05-15T09:01:40.377Z,38.15
2019-05-15T09:04:30.221Z,36.65
2019-05-15T09:07:01.164Z,38.42
2019-05-15T09:09:38.398Z,32.98
2019-05-15T09:12:20.729Z,32.83
2019-05-15T09:14:58.294Z,31.25
2019-05-15T09:17:36.105Z,31.10
2019-05-15T09:20:14.077Z,24.92
2019-05-15T09:22:52.715Z,30.37
2019-05-15T09:25:30.012Z,27.45
2019-05-15T09:28:08.639Z,28.75
2019-05-15T09:30:48.262Z,31.68
2019-05-15T09:33:28.598Z,27.73
2019-05-15T09:36:06.305Z,25.60
2019-05-15T09:38:44.388Z,30.75
2019-05-15T09:41:22.177Z,32.78
2019-05-15T09:44:00.966Z,29.18
2019-05-15T09:46:38.926Z,29.77
2019-05-15T09:49:18.215Z,26.12
2019-05-15T09:51:58.429Z,32.28
2019-05-15T09:54:38.478Z,34.60
2019-05-15T09:57:14.723Z,33.65
2019-05-15T09:59:52.035Z,32.75
2019-05-15T10:02:29.385Z,28.73
2019-05-15T10:05:10.879Z,26.23
2019-05-15T10:07:47.157Z,41.40
2019-05-15T10:10:28.457Z,30.27
2019-05-15T10:13:05.917Z,29.92
2019-05-15T10:15:47.441Z,40.12
2019-05-15T10:18:22.860Z,44.03
2019-05-15T10:21:01.265Z,33.98
2019-05-15T10:23:40.340Z,28.10
2019-05-15T10:26:19.278Z,54.95
2019-05-15T10:28:58.421Z,34.33
2019-05-15T10:31:38.771Z,30.12
2019-05-15T10:34:18.108Z,30.52
2019-05-15T10:36:55.195Z,34.92
2019-05-15T10:39:33.045Z,38.90
2019-05-15T10:42:10.515Z,41.02
2019-05-15T10:44:48.835Z,31.25
2019-05-15T10:47:28.952Z,31.45
2019-05-15T10:50:07.829Z,33.98
2019-05-15T10:52:44.951Z,33.23
2019-05-15T10:55:22.593Z,53.25
2019-05-15T10:58:00.599Z,48.90
2019-05-15T11:00:37.914Z,45.40
2019-05-15T11:03:15.204Z,37.20
2019-05-15T11:05:52.223Z,41.92
2019-05-15T11:08:30.064Z,36.45
2019-05-15T11:11:09.111Z,29.70
2019-05-15T11:13:46.841Z,28.50
2019-05-15T11:16:24.369Z,30.15
2019-05-15T11:19:02.326Z,27.40
2019-05-15T11:21:43.519Z,33.00
2019-05-15T11:24:20.265Z,32.17
2019-05-15T11:26:59.458Z,31.73
2019-05-15T11:29:38.195Z,26.95
2019-05-15T11:32:16.201Z,27.42
2019-05-15T11:34:53.592Z,21.87
2019-05-15T11:37:31.202Z,27.20
2019-05-15T11:40:10.323Z,26.85
2019-05-15T11:42:49.017Z,34.10
2019-05-15T11:45:28.917Z,23.27
2019-05-15T11:48:05.151Z,21.37
2019-05-15T11:50:43.410Z,34.60
2019-05-15T11:53:20.765Z,43.73
2019-05-15T11:55:59.836Z,45.85
2019-05-15T11:58:38.994Z,29.30
2019-05-15T12:01:19.268Z,28.55
2019-05-15T12:03:58.366Z,45.03
2019-05-15T12:06:35.076Z,36.40
2019-05-15T12:09:12.633Z,26.95
2019-05-15T12:11:50.857Z,33.10
2019-05-15T12:14:29.822Z,25.65
2019-05-15T12:17:12.460Z,21.87
2019-05-15T12:19:54.913Z,42.30
2019-05-15T12:22:24.488Z,26.10
2019-05-15T12:25:01.774Z,31.90
2019-05-15T12:27:40.706Z,26.12
2019-05-15T12:30:19.884Z,26.52
2019-05-15T12:33:00.213Z,25.88
2019-05-15T12:35:39.673Z,25.68
2019-05-15T12:38:18.606Z,27.50
2019-05-15T13:02:11.296Z,26.90
2019-05-15T13:04:49.096Z,24.25
2019-05-15T13:07:28.418Z,22.20
2019-05-15T13:10:08.472Z,24.95
2019-05-15T13:12:59.120Z,24.07
2019-05-15T13:15:28.170Z,22.65
2019-05-15T13:18:12.855Z,20.17
2019-05-15T13:20:45.875Z,23.65
2019-05-15T13:23:23.356Z,23.65
2019-05-15T13:26:01.426Z,28.47
2019-05-15T13:28:39.107Z,28.23
2019-05-15T13:31:18.953Z,29.65
2019-05-15T13:33:58.572Z,26.80
2019-05-15T13:36:35.657Z,36.25
2019-05-15T13:39:13.964Z,27.25
2019-05-15T13:41:51.161Z,27.87
2019-05-15T13:44:40.813Z,31.15
2019-05-15T13:47:22.263Z,35.80
2019-05-15T13:50:00.032Z,32.83
2019-05-15T13:52:39.258Z,28.87
2019-05-15T13:55:24.850Z,30.57
2019-05-15T13:57:57.980Z,27.95
2019-05-15T14:00:34.785Z,31.82
2019-05-15T14:03:12.408Z,32.40
2019-05-15T14:05:50.042Z,32.30
2019-05-15T14:08:28.936Z,32.55
2019-05-15T14:11:06.244Z,26.95
2019-05-15T14:13:43.890Z,30.70
2019-05-15T14:16:21.269Z,29.90
2019-05-15T14:18:59.411Z,26.30
2019-05-15T14:21:37.919Z,27.62
2019-05-15T14:24:17.842Z,28.57
2019-05-15T14:26:54.888Z,23.02
2019-05-15T14:29:32.835Z,25.08
2019-05-15T14:32:10.358Z,25.65
2019-05-15T14:34:50.853Z,28.17
2019-05-15T14:37:28.599Z,31.95
2019-05-15T14:40:08.745Z,32.33
2019-05-15T14:42:45.406Z,32.85
2019-05-15T14:45:23.413Z,34.92
2019-05-15T14:48:00.768Z,31.70
2019-05-15T14:50:38.416Z,32.48
2019-05-15T14:53:18.623Z,29.92
2019-05-15T14:55:59.987Z,26.70
2019-05-15T14:58:35.358Z,29.48
2019-05-15T15:01:13.402Z,26.70
2019-05-15T15:03:51.133Z,24.55
2019-05-15T15:06:28.978Z,22.87
2019-05-15T15:09:08.444Z,22.40
2019-05-15T15:11:45.605Z,21.17
2019-05-15T15:14:22.894Z,26.48
2019-05-15T15:17:00.034Z,23.10
2019-05-15T15:19:38.856Z,20.72
2019-05-15T15:22:17.323Z,22.62
2019-05-15T15:24:55.746Z,20.20
2019-05-15T15:27:33.471Z,23.35
2019-05-15T15:30:10.845Z,22.67
2019-05-15T15:32:49.323Z,22.90
2019-05-15T15:35:28.897Z,23.73
2019-05-15T15:38:11.915Z,20.80
2019-05-15T15:40:48.119Z,23.47
2019-05-15T15:43:28.815Z,20.90
2019-05-15T15:46:08.639Z,22.60
2019-05-15T15:48:45.486Z,23.05
2019-05-15T15:51:23.308Z,20.48
2019-05-15T15:54:01.167Z,25.97
2019-05-15T15:56:39.610Z,25.90
2019-05-15T15:59:18.194Z,25.40
2019-05-15T16:01:55.811Z,24.77
2019-05-15T16:04:33.982Z,28.32
2019-05-15T16:07:11.482Z,23.73
2019-05-15T16:09:48.835Z,31.25
2019-05-15T16:12:27.818Z,23.92
2019-05-15T16:15:08.579Z,25.57
2019-05-15T16:17:44.845Z,27.30
2019-05-15T16:20:22.119Z,25.80
2019-05-15T16:22:59.303Z,29.50
2019-05-15T16:25:38.517Z,27.15
2019-05-15T16:28:18.460Z,30.37
2019-05-15T16:30:58.551Z,20.68
2019-05-15T16:33:36.190Z,30.08
2019-05-15T16:36:14.627Z,29.52
2019-05-15T16:39:04.105Z,27.60
2019-05-15T16:41:30.977Z,25.00
2019-05-15T16:44:08.729Z,25.88
2019-05-15T16:46:48.148Z,33.75
2019-05-15T16:49:28.440Z,25.85
2019-05-15T16:52:05.840Z,30.35
2019-05-15T16:54:43.181Z,24.57
2019-05-15T16:57:21.048Z,27.30
2019-05-15T16:59:59.367Z,28.60
2019-05-15T17:02:39.171Z,26.17
2019-05-15T17:05:18.739Z,32.63
2019-05-15T17:07:58.356Z,31.25
2019-05-15T17:10:36.000Z,27.70
2019-05-15T17:13:13.533Z,31.52
2019-05-15T17:15:50.902Z,29.07
2019-05-15T17:18:29.209Z,29.37
2019-05-15T17:21:10.038Z,29.35
2019-05-15T17:23:45.940Z,31.52
2019-05-15T17:26:23.348Z,34.05
2019-05-15T17:29:01.224Z,29.98
2019-05-15T17:31:39.567Z,33.08
2019-05-15T17:34:17.936Z,31.30
2019-05-15T17:36:58.323Z,25.77
2019-05-15T17:39:38.898Z,28.45
2019-05-15T17:42:14.461Z,26.62
2019-05-15T17:44:53.049Z,23.65
2019-05-15T17:47:30.178Z,23.95
2019-05-15T17:50:08.587Z,22.87
2019-05-15T17:52:48.942Z,23.38
2019-05-15T17:55:27.838Z,26.23
2019-05-15T17:58:05.052Z,19.37
2019-05-15T18:00:43.515Z,21.30
2019-05-15T18:03:21.594Z,23.75
2019-05-15T18:05:59.238Z,28.65
2019-05-15T18:08:39.073Z,19.60
2019-05-15T18:11:18.674Z,25.60
2019-05-15T18:13:58.054Z,24.40
2019-05-15T18:16:35.482Z,25.35
2019-05-15T18:19:13.550Z,26.85
2019-05-15T18:21:54.047Z,21.48
2019-05-15T18:24:31.636Z,25.88
2019-05-15T18:27:09.178Z,26.02
2019-05-15T18:29:48.070Z,24.63
2019-05-15T18:32:28.637Z,27.00
2019-05-15T18:35:08.342Z,27.02
2019-05-15T18:37:48.261Z,28.77
2019-05-15T18:40:27.799Z,29.55
2019-05-15T18:43:05.883Z,26.15
2019-05-15T18:45:43.463Z,35.38
2019-05-15T18:48:21.185Z,26.30
2019-05-15T18:50:58.916Z,34.05
2019-05-15T18:53:40.400Z,28.67
2019-05-15T18:56:18.706Z,28.45
2019-05-15T18:58:57.859Z,32.30
2019-05-15T19:01:35.597Z,30.02
2019-05-15T19:04:14.500Z,31.42
2019-05-15T19:06:52.796Z,33.70
2019-05-15T19:09:30.646Z,44.60
2019-05-15T19:12:09.222Z,39.65
2019-05-15T19:14:49.407Z,35.30
2019-05-15T19:17:27.539Z,38.78
2019-05-15T19:20:05.394Z,39.20
2019-05-15T19:22:42.718Z,34.65
2019-05-15T19:25:21.164Z,45.28
2019-05-15T19:27:58.246Z,42.30
2019-05-15T19:30:35.910Z,44.85
2019-05-15T19:33:13.614Z,40.52
2019-05-15T19:35:51.881Z,43.38
2019-05-15T19:38:30.733Z,44.38
2019-05-15T19:41:09.682Z,47.45
2019-05-15T19:43:48.726Z,46.73
2019-05-15T19:46:28.352Z,55.10
2019-05-15T19:49:08.582Z,53.38
2019-05-15T19:51:48.516Z,53.05
2019-05-15T19:54:25.149Z,53.02
2019-05-15T19:57:04.212Z,53.85
2019-05-15T19:59:42.886Z,52.13
2019-05-15T20:02:20.389Z,54.05
2019-05-15T20:04:58.316Z,56.13
2019-05-15T20:07:38.419Z,51.53
2019-05-15T20:10:18.290Z,54.15
2019-05-15T20:12:55.521Z,56.00
2019-05-15T20:15:33.214Z,51.92
2019-05-15T20:18:11.717Z,63.45
2019-05-15T20:20:49.096Z,50.58
2019-05-15T20:23:28.729Z,51.02
2019-05-15T20:26:05.456Z,52.20
2019-05-15T20:28:44.114Z,55.30
2019-05-15T20:31:22.003Z,52.35
2019-05-15T20:34:05.683Z,48.95
2019-05-15T20:36:39.146Z,53.87
2019-05-15T20:39:17.706Z,50.03
2019-05-15T20:41:58.328Z,51.60
2019-05-15T20:44:37.917Z,49.88
2019-05-15T20:47:15.716Z,53.83
2019-05-15T20:49:54.327Z,49.50
2019-05-15T20:52:31.344Z,52.05
2019-05-15T20:55:08.730Z,52.15
2019-05-15T20:57:49.774Z,55.00
2019-05-15T21:00:25.986Z,53.02
2019-05-15T21:03:03.516Z,46.68
2019-05-15T21:05:41.448Z,41.65
2019-05-15T21:08:18.689Z,49.33
2019-05-15T21:10:59.155Z,47.80
2019-05-15T21:13:38.422Z,52.80
2019-05-15T21:16:18.743Z,49.00
2019-05-15T21:18:57.731Z,58.17
2019-05-15T21:21:34.794Z,40.55
2019-05-15T21:24:11.942Z,37.98
2019-05-15T21:26:49.655Z,38.85
2019-05-15T21:29:27.103Z,40.45
2019-05-15T21:32:04.668Z,37.48
2019-05-15T21:34:44.425Z,33.00
2019-05-15T21:37:21.556Z,35.38
2019-05-15T21:39:59.867Z,29.42
2019-05-15T21:42:41.732Z,24.65
2019-05-15T21:45:18.318Z,27.27
2019-05-15T21:48:00.468Z,25.00
2019-05-15T21:50:34.825Z,23.10
2019-05-15T21:53:13.162Z,22.05
2019-05-15T21:55:50.754Z,19.00
2019-05-15T21:58:28.575Z,23.25
2019-05-15T22:01:08.078Z,24.18
2019-05-15T22:03:45.382Z,23.55
2019-05-15T22:06:22.446Z,24.10
2019-05-15T22:09:00.561Z,25.48
2019-05-15T22:11:40.341Z,21.60
2019-05-15T22:14:18.814Z,22.80
2019-05-15T22:16:58.143Z,19.07
2019-05-15T22:19:38.511Z,15.85
2019-05-15T22:22:17.870Z,30.68
2019-05-15T22:24:55.234Z,31.82
2019-05-15T22:27:37.895Z,36.98
2019-05-15T22:32:51.624Z,51.88
2019-05-15T22:35:29.798Z,55.95
2019-05-15T22:38:08.839Z,38.75
2019-05-15T22:40:48.681Z,35.38
2019-05-15T22:43:25.674Z,38.60
2019-05-15T22:46:02.889Z,38.80
2019-05-15T22:48:41.306Z,32.73
2019-05-15T22:51:18.658Z,31.90
2019-05-15T22:53:57.983Z,37.03
2019-05-15T22:56:37.767Z,29.92
2019-05-15T22:59:15.395Z,30.52
2019-05-15T23:01:52.875Z,33.13
2019-05-15T23:04:30.418Z,31.48
2019-05-15T23:07:08.278Z,23.67
2019-05-15T23:09:45.738Z,23.20
2019-05-15T23:12:23.704Z,19.87
2019-05-15T23:15:01.151Z,18.30
2019-05-15T23:17:39.101Z,15.20
2019-05-15T23:20:17.900Z,14.68
2019-05-15T23:22:58.181Z,18.82
2019-05-15T23:25:34.678Z,13.65
2019-05-15T23:28:13.398Z,16.07
2019-05-15T23:30:51.216Z,15.38
2019-05-15T23:33:29.155Z,15.65
2019-05-15T23:36:06.494Z,16.75
2019-05-15T23:38:44.623Z,15.18
2019-05-15T23:41:22.802Z,13.30
2019-05-15T23:44:00.808Z,17.35
2019-05-15T23:46:38.366Z,15.53
2019-05-15T23:49:16.398Z,15.55
2019-05-15T23:51:54.949Z,18.27
2019-05-15T23:54:32.093Z,15.38
2019-05-15T23:57:09.611Z,17.73
2019-05-15T23:59:47.854Z,18.12
